createdAt,value
2018-01-14T00:00:33.646Z,94392.88
2018-01-14T00:03:01.672Z,94396.67
2018-01-14T00:05:30.107Z,94390.11
2018-01-14T00:07:58.167Z,94381.06
2018-01-14T00:10:26.059Z,94378.17
2018-01-14T00:12:54.882Z,94383.22
2018-01-14T00:15:23.419Z,94384.73
2018-01-14T00:17:52.037Z,94382.25
2018-01-14T00:20:20.833Z,94376.00
2018-01-14T00:22:49.225Z,94372.56
2018-01-14T00:25:18.648Z,94368.00
2018-01-14T00:27:47.257Z,94370.08
2018-01-14T00:30:16.382Z,94371.28
2018-01-14T00:32:44.468Z,94371.12
2018-01-14T00:35:12.844Z,94375.60
2018-01-14T00:37:41.306Z,94373.12
2018-01-14T00:40:09.198Z,94375.53
2018-01-14T00:42:36.931Z,94374.89
2018-01-14T00:45:04.653Z,94382.58
2018-01-14T00:47:32.353Z,94373.37
2018-01-14T00:50:00.113Z,94378.73
2018-01-14T00:52:27.869Z,94382.66
2018-01-14T00:54:55.638Z,94380.73
2018-01-14T00:57:23.338Z,94386.50
2018-01-14T00:59:51.077Z,94384.49
2018-01-14T01:02:18.801Z,94382.09
2018-01-14T01:04:46.546Z,94384.09
2018-01-14T01:07:14.376Z,94383.44
2018-01-14T01:09:42.048Z,94376.35
2018-01-14T01:12:09.929Z,94377.27
2018-01-14T01:14:37.606Z,94385.46
2018-01-14T01:17:05.266Z,94384.34
2018-01-14T01:19:32.994Z,94384.42
2018-01-14T01:22:00.736Z,94381.85
2018-01-14T01:24:28.526Z,94380.56
2018-01-14T01:26:56.239Z,94377.06
2018-01-14T01:29:23.934Z,94379.23
2018-01-14T01:31:51.673Z,94382.81
2018-01-14T01:34:19.465Z,94374.08
2018-01-14T01:36:47.175Z,94376.64
2018-01-14T01:39:14.961Z,94378.64
2018-01-14T01:41:42.675Z,94379.12
2018-01-14T01:44:10.430Z,94373.68
2018-01-14T01:46:38.184Z,94379.63
2018-01-14T01:49:05.962Z,94372.34
2018-01-14T01:51:33.661Z,94374.80
2018-01-14T01:54:01.389Z,94372.56
2018-01-14T01:56:29.162Z,94370.80
2018-01-14T01:58:57.826Z,94370.48
2018-01-14T02:01:25.597Z,94365.84
2018-01-14T02:03:53.308Z,94363.27
2018-01-14T02:06:21.105Z,94360.79
2018-01-14T02:08:48.842Z,94358.39
2018-01-14T02:11:16.543Z,94358.47
2018-01-14T02:13:44.297Z,94357.41
2018-01-14T02:16:12.012Z,94348.86
2018-01-14T02:18:39.745Z,94345.98
2018-01-14T02:21:07.427Z,94345.82
2018-01-14T02:23:35.133Z,94348.47
2018-01-14T02:26:02.844Z,94346.14
2018-01-14T02:28:30.552Z,94344.06
2018-01-14T02:30:58.379Z,94341.34
2018-01-14T02:33:26.096Z,94338.45
2018-01-14T02:35:53.793Z,94339.33
2018-01-14T02:38:21.553Z,94333.41
2018-01-14T02:40:49.338Z,94337.81
2018-01-14T02:43:17.031Z,94331.17
2018-01-14T02:45:44.858Z,94334.08
2018-01-14T02:48:12.562Z,94339.20
2018-01-14T02:50:40.309Z,94335.19
2018-01-14T02:53:08.038Z,94341.52
2018-01-14T02:55:35.779Z,94332.15
2018-01-14T02:58:03.441Z,94328.23
2018-01-14T03:00:31.327Z,94327.59
2018-01-14T03:02:59.095Z,94324.80
2018-01-14T03:05:26.804Z,94323.03
2018-01-14T03:07:54.561Z,94330.63
2018-01-14T03:10:22.318Z,94331.36
2018-01-14T03:12:50.048Z,94332.48
2018-01-14T03:15:17.798Z,94329.44
2018-01-14T03:17:45.514Z,94329.67
2018-01-14T03:20:13.848Z,94324.63
2018-01-14T03:22:41.549Z,94325.59
2018-01-14T03:25:09.276Z,94323.66
2018-01-14T03:27:36.962Z,94327.67
2018-01-14T03:30:04.749Z,94327.59
2018-01-14T03:32:32.455Z,94330.55
2018-01-14T03:35:00.176Z,94330.47
2018-01-14T03:37:27.901Z,94328.47
2018-01-14T03:39:55.573Z,94321.19
2018-01-14T03:42:23.335Z,94318.95
2018-01-14T03:44:51.068Z,94327.91
2018-01-14T03:47:18.739Z,94330.37
2018-01-14T03:49:46.479Z,94330.61
2018-01-14T03:52:14.287Z,94327.48
2018-01-14T03:54:41.947Z,94323.11
2018-01-14T03:57:09.622Z,94325.00
2018-01-14T03:59:37.499Z,94330.20
2018-01-14T04:02:05.164Z,94326.44
2018-01-14T04:04:32.911Z,94330.87
2018-01-14T04:07:00.629Z,94333.52
2018-01-14T04:09:28.405Z,94336.31
2018-01-14T04:11:56.085Z,94320.30
2018-01-14T04:14:23.783Z,94330.95
2018-01-14T04:16:51.530Z,94332.63
2018-01-14T04:19:21.981Z,94335.03
2018-01-14T04:21:49.844Z,94330.33
2018-01-14T04:24:17.603Z,94323.84
2018-01-14T04:26:45.365Z,94326.47
2018-01-14T04:29:13.074Z,94323.27
2018-01-14T04:31:40.748Z,94324.79
2018-01-14T04:34:08.488Z,94325.83
2018-01-14T04:36:36.240Z,94329.20
2018-01-14T04:39:04.124Z,94332.16
2018-01-14T04:41:31.874Z,94327.20
2018-01-14T04:43:59.580Z,94330.31
2018-01-14T04:46:27.262Z,94326.95
2018-01-14T04:48:54.993Z,94332.31
2018-01-14T04:51:22.675Z,94332.31
2018-01-14T04:53:50.432Z,94319.74
2018-01-14T04:56:18.156Z,94334.15
2018-01-14T04:58:45.864Z,94329.50
2018-01-14T05:01:13.616Z,94328.06
2018-01-14T05:03:41.332Z,94322.73
2018-01-14T05:06:09.087Z,94330.63
2018-01-14T05:08:36.805Z,94326.71
2018-01-14T05:11:04.511Z,94323.27
2018-01-14T05:13:32.363Z,94326.80
2018-01-14T05:16:00.059Z,94325.27
2018-01-14T05:18:27.806Z,94330.38
2018-01-14T05:20:55.564Z,94334.16
2018-01-14T05:23:23.289Z,94326.95
2018-01-14T05:25:51.032Z,94322.28
2018-01-14T05:28:18.758Z,94329.36
2018-01-14T05:30:46.439Z,94331.36
2018-01-14T05:33:14.113Z,94323.72
2018-01-14T05:35:41.847Z,94327.83
2018-01-14T05:38:09.516Z,94327.67
2018-01-14T05:40:37.212Z,94332.23
2018-01-14T05:43:04.961Z,94332.72
2018-01-14T05:45:32.724Z,94327.51
2018-01-14T05:48:00.518Z,94330.55
2018-01-14T05:50:28.227Z,94326.57
2018-01-14T05:52:55.952Z,94336.81
2018-01-14T05:55:23.672Z,94328.41
2018-01-14T05:57:51.384Z,94335.05
2018-01-14T06:00:19.137Z,94332.49
2018-01-14T06:02:46.800Z,94331.91
2018-01-14T06:05:14.552Z,94335.61
2018-01-14T06:07:42.272Z,94332.41
2018-01-14T06:10:10.056Z,94330.73
2018-01-14T06:12:37.736Z,94333.77
2018-01-14T06:15:05.535Z,94333.21
2018-01-14T06:17:33.273Z,94325.50
2018-01-14T06:20:01.011Z,94324.79
2018-01-14T06:22:28.753Z,94326.28
2018-01-14T06:24:56.637Z,94324.52
2018-01-14T06:27:24.306Z,94324.05
2018-01-14T06:29:52.109Z,94326.88
2018-01-14T06:32:19.797Z,94331.34
2018-01-14T06:34:47.520Z,94333.45
2018-01-14T06:37:15.364Z,94329.93
2018-01-14T06:39:43.090Z,94331.45
2018-01-14T06:42:10.782Z,94327.38
2018-01-14T06:44:38.477Z,94330.81
2018-01-14T06:47:06.214Z,94335.69
2018-01-14T06:49:33.978Z,94336.23
2018-01-14T06:52:01.735Z,94332.64
2018-01-14T06:54:29.411Z,94331.59
2018-01-14T06:56:57.134Z,94333.91
2018-01-14T06:59:24.928Z,94333.77
2018-01-14T07:01:52.621Z,94337.67
2018-01-14T07:04:20.298Z,94339.44
2018-01-14T07:06:48.054Z,94335.44
2018-01-14T07:09:15.776Z,94336.23
2018-01-14T07:11:43.610Z,94341.61
2018-01-14T07:14:11.581Z,94342.02
2018-01-14T07:16:39.367Z,94346.58
2018-01-14T07:19:07.076Z,94346.79
2018-01-14T07:21:34.778Z,94350.23
2018-01-14T07:24:02.549Z,94341.62
2018-01-14T07:26:30.251Z,94350.16
2018-01-14T07:28:57.984Z,94352.48
2018-01-14T07:31:25.690Z,94356.33
2018-01-14T07:33:53.481Z,94356.09
2018-01-14T07:36:21.228Z,94351.29
2018-01-14T07:38:49.020Z,94350.48
2018-01-14T07:41:16.784Z,94353.52
2018-01-14T07:43:44.558Z,94368.17
2018-01-14T07:46:12.382Z,94360.50
2018-01-14T07:48:40.140Z,94370.48
2018-01-14T07:51:07.844Z,94370.00
2018-01-14T07:53:35.715Z,94366.72
2018-01-14T07:56:03.522Z,94365.52
2018-01-14T07:58:31.235Z,94370.48
2018-01-14T08:00:58.968Z,94366.17
2018-01-14T08:03:26.793Z,94372.96
2018-01-14T08:05:54.548Z,94367.17
2018-01-14T08:08:22.347Z,94367.02
2018-01-14T08:10:51.186Z,94373.27
2018-01-14T08:13:19.144Z,94379.75
2018-01-14T08:15:46.978Z,94374.94
2018-01-14T08:18:14.696Z,94374.63
2018-01-14T08:20:42.481Z,94374.51
2018-01-14T08:23:11.301Z,94379.55
2018-01-14T08:25:39.047Z,94384.12
2018-01-14T08:28:06.780Z,94389.73
2018-01-14T08:30:34.596Z,94390.29
2018-01-14T08:33:02.366Z,94396.90
2018-01-14T08:35:30.238Z,94402.20
2018-01-14T08:37:57.927Z,94401.87
2018-01-14T08:40:25.798Z,94403.27
2018-01-14T08:42:53.500Z,94398.91
2018-01-14T08:45:22.714Z,94403.03
2018-01-14T08:47:50.671Z,94403.91
2018-01-14T08:50:18.555Z,94406.95
2018-01-14T08:52:46.287Z,94409.20
2018-01-14T08:55:14.033Z,94403.64
2018-01-14T08:57:42.981Z,94411.00
2018-01-14T09:00:10.760Z,94413.57
2018-01-14T09:02:38.489Z,94418.70
2018-01-14T09:05:06.212Z,94412.48
2018-01-14T09:07:33.970Z,94414.61
2018-01-14T09:10:01.702Z,94418.94
2018-01-14T09:12:29.402Z,94421.90
2018-01-14T09:14:57.258Z,94428.03
2018-01-14T09:17:25.927Z,94419.30
2018-01-14T09:19:53.737Z,94420.20
2018-01-14T09:22:21.483Z,94424.76
2018-01-14T09:24:49.268Z,94425.88
2018-01-14T09:27:16.986Z,94424.69
2018-01-14T09:29:44.733Z,94417.40
2018-01-14T09:32:12.483Z,94424.86
2018-01-14T09:34:40.198Z,94421.34
2018-01-14T09:37:07.894Z,94417.28
2018-01-14T09:39:35.820Z,94415.68
2018-01-14T09:42:03.579Z,94420.34
2018-01-14T09:44:31.256Z,94420.69
2018-01-14T09:46:59.209Z,94425.66
2018-01-14T09:49:27.265Z,94420.61
2018-01-14T09:51:55.052Z,94415.20
2018-01-14T09:54:22.885Z,94419.71
2018-01-14T09:56:50.747Z,94421.06
2018-01-14T09:59:18.525Z,94416.39
2018-01-14T10:01:46.286Z,94413.03
2018-01-14T10:04:14.079Z,94408.50
2018-01-14T10:06:41.800Z,94405.80
2018-01-14T10:09:09.551Z,94403.08
2018-01-14T10:11:37.471Z,94400.11
2018-01-14T10:14:05.203Z,94416.47
2018-01-14T10:16:32.956Z,94414.31
2018-01-14T10:19:00.764Z,94414.66
2018-01-14T10:21:28.524Z,94409.92
2018-01-14T10:23:57.101Z,94406.53
2018-01-14T10:26:24.853Z,94399.13
2018-01-14T10:28:52.583Z,94402.63
2018-01-14T10:31:20.284Z,94400.23
2018-01-14T10:33:48.531Z,94393.19
2018-01-14T10:36:16.282Z,94396.23
2018-01-14T10:38:44.029Z,94393.88
2018-01-14T10:41:11.802Z,94396.98
2018-01-14T10:43:39.488Z,94398.75
2018-01-14T10:46:07.164Z,94398.42
2018-01-14T10:48:34.906Z,94399.23
2018-01-14T10:51:02.705Z,94396.07
2018-01-14T10:53:30.384Z,94396.83
2018-01-14T10:55:58.163Z,94388.96
2018-01-14T10:58:25.987Z,94385.85
2018-01-14T11:00:58.739Z,94388.91
2018-01-14T11:03:26.540Z,94383.99
2018-01-14T11:05:55.112Z,94379.91
2018-01-14T11:08:23.615Z,94382.73
2018-01-14T11:10:51.399Z,94379.66
2018-01-14T11:13:19.208Z,94376.28
2018-01-14T11:15:46.926Z,94373.80
2018-01-14T11:18:14.683Z,94379.88
2018-01-14T11:20:42.387Z,94382.78
2018-01-14T11:23:10.139Z,94374.91
2018-01-14T11:25:37.887Z,94374.08
2018-01-14T11:28:05.575Z,94374.66
2018-01-14T11:30:33.381Z,94375.16
2018-01-14T11:33:01.131Z,94373.50
2018-01-14T11:35:28.848Z,94363.11
2018-01-14T11:37:56.544Z,94366.77
2018-01-14T11:40:24.319Z,94377.70
2018-01-14T11:42:53.332Z,94373.74
2018-01-14T11:45:21.072Z,94373.79
2018-01-14T11:47:48.834Z,94375.78
2018-01-14T11:50:16.506Z,94366.78
2018-01-14T11:52:44.199Z,94361.89
2018-01-14T11:55:11.961Z,94355.98
2018-01-14T11:57:39.722Z,94358.59
2018-01-14T12:00:07.598Z,94358.15
2018-01-14T12:02:35.332Z,94355.54
2018-01-14T12:05:03.092Z,94350.47
2018-01-14T12:07:30.913Z,94352.34
2018-01-14T12:09:58.658Z,94352.56
2018-01-14T12:12:26.430Z,94349.31
2018-01-14T12:14:54.175Z,94345.94
2018-01-14T12:17:22.039Z,94347.41
2018-01-14T12:19:49.801Z,94341.49
2018-01-14T12:22:17.502Z,94341.66
2018-01-14T12:24:45.249Z,94343.35
2018-01-14T12:27:13.301Z,94338.23
2018-01-14T12:29:42.284Z,94337.33
2018-01-14T12:32:10.030Z,94340.23
2018-01-14T12:34:40.815Z,94340.92
2018-01-14T12:37:08.547Z,94341.52
2018-01-14T12:39:36.322Z,94339.47
2018-01-14T12:42:04.106Z,94337.16
2018-01-14T12:44:31.866Z,94345.58
2018-01-14T12:47:00.827Z,94339.01
2018-01-14T12:49:28.546Z,94344.72
2018-01-14T12:51:56.319Z,94347.55
2018-01-14T12:54:24.058Z,94348.48
2018-01-14T12:56:51.779Z,94344.27
2018-01-14T12:59:19.548Z,94347.41
2018-01-14T13:01:47.288Z,94345.45
2018-01-14T13:04:15.049Z,94344.52
2018-01-14T13:06:42.748Z,94341.94
2018-01-14T13:09:11.177Z,94351.94
2018-01-14T13:11:39.009Z,94351.21
2018-01-14T13:14:06.796Z,94355.52
2018-01-14T13:16:34.492Z,94350.86
2018-01-14T13:19:02.280Z,94355.14
2018-01-14T13:21:30.023Z,94350.02
2018-01-14T13:23:57.806Z,94352.72
2018-01-14T13:26:25.515Z,94361.63
2018-01-14T13:28:53.361Z,94354.02
2018-01-14T13:31:21.076Z,94359.05
2018-01-14T13:33:48.822Z,94357.92
2018-01-14T13:36:16.628Z,94364.27
2018-01-14T13:38:45.532Z,94362.98
2018-01-14T13:41:13.617Z,94359.19
2018-01-14T13:43:41.318Z,94357.92
2018-01-14T13:46:09.020Z,94351.08
2018-01-14T13:48:37.491Z,94359.77
2018-01-14T13:51:05.810Z,94358.57
2018-01-14T13:53:33.570Z,94360.82
2018-01-14T13:56:01.840Z,94354.98
2018-01-14T13:58:29.585Z,94358.07
2018-01-14T14:00:57.428Z,94352.25
2018-01-14T14:03:25.180Z,94359.22
2018-01-14T14:05:52.947Z,94362.23
2018-01-14T14:08:20.684Z,94359.94
2018-01-14T14:10:48.980Z,94365.34
2018-01-14T14:13:16.762Z,94361.34
2018-01-14T14:15:44.609Z,94364.38
2018-01-14T14:18:12.315Z,94368.36
2018-01-14T14:20:40.067Z,94367.07
2018-01-14T14:23:07.866Z,94364.84
2018-01-14T14:25:35.871Z,94364.67
2018-01-14T14:28:03.617Z,94366.00
2018-01-14T14:30:31.494Z,94376.21
2018-01-14T14:32:59.249Z,94379.58
2018-01-14T14:35:27.047Z,94373.44
2018-01-14T14:37:54.970Z,94376.24
2018-01-14T14:40:22.715Z,94377.92
2018-01-14T14:42:50.503Z,94369.08
2018-01-14T14:45:18.258Z,94376.46
2018-01-14T14:47:46.056Z,94374.05
2018-01-14T14:50:13.810Z,94372.94
2018-01-14T14:52:41.687Z,94376.14
2018-01-14T14:55:09.529Z,94375.98
2018-01-14T14:57:37.244Z,94383.11
2018-01-14T15:00:05.640Z,94376.45
2018-01-14T15:02:34.051Z,94382.35
2018-01-14T15:05:01.753Z,94385.67
2018-01-14T15:07:29.484Z,94387.04
2018-01-14T15:09:57.449Z,94384.23
2018-01-14T15:12:25.204Z,94391.66
2018-01-14T15:14:53.019Z,94390.85
2018-01-14T15:17:20.784Z,94390.29
2018-01-14T15:19:48.578Z,94400.50
2018-01-14T15:22:16.536Z,94410.12
2018-01-14T15:24:44.314Z,94406.41
2018-01-14T15:27:12.531Z,94404.19
2018-01-14T15:29:40.245Z,94406.44
2018-01-14T15:32:07.996Z,94407.16
2018-01-14T15:34:35.782Z,94409.70
2018-01-14T15:37:03.627Z,94409.33
2018-01-14T15:39:31.387Z,94413.87
2018-01-14T15:41:59.217Z,94417.23
2018-01-14T15:44:26.960Z,94415.66
2018-01-14T15:46:54.663Z,94417.72
2018-01-14T15:49:22.482Z,94411.31
2018-01-14T15:51:50.194Z,94415.48
2018-01-14T15:54:17.903Z,94422.75
2018-01-14T15:56:45.823Z,94422.67
2018-01-14T15:59:13.534Z,94418.50
2018-01-14T16:01:41.331Z,94420.98
2018-01-14T16:04:09.168Z,94421.52
2018-01-14T16:06:36.972Z,94433.86
2018-01-14T16:09:04.864Z,94432.73
2018-01-14T16:11:32.633Z,94431.30
2018-01-14T16:14:00.352Z,94442.10
2018-01-14T16:16:28.320Z,94429.86
2018-01-14T16:18:56.308Z,94435.95
2018-01-14T16:21:24.110Z,94445.16
2018-01-14T16:23:51.866Z,94440.56
2018-01-14T16:26:19.678Z,94442.07
2018-01-14T16:28:48.078Z,94438.16
2018-01-14T16:31:15.954Z,94447.07
2018-01-14T16:33:44.766Z,94447.44
2018-01-14T16:36:12.562Z,94441.75
2018-01-14T16:38:40.385Z,94439.80
2018-01-14T16:41:08.235Z,94444.95
2018-01-14T16:43:36.472Z,94437.39
2018-01-14T16:46:04.293Z,94452.61
2018-01-14T16:48:32.270Z,94449.35
2018-01-14T16:51:00.160Z,94452.25
2018-01-14T16:53:27.964Z,94452.75
2018-01-14T16:55:55.775Z,94454.26
2018-01-14T16:58:23.722Z,94465.72
2018-01-14T17:00:51.709Z,94464.17
2018-01-14T17:03:19.592Z,94470.77
2018-01-14T17:05:47.509Z,94469.80
2018-01-14T17:08:15.421Z,94469.00
2018-01-14T17:10:43.242Z,94471.43
2018-01-14T17:13:12.138Z,94476.70
2018-01-14T17:15:39.990Z,94472.39
2018-01-14T17:18:08.592Z,94467.78
2018-01-14T17:20:36.566Z,94461.97
2018-01-14T17:23:04.482Z,94468.67
2018-01-14T17:25:32.334Z,94470.48
2018-01-14T17:28:00.981Z,94472.49
2018-01-14T17:30:29.473Z,94471.84
2018-01-14T17:32:57.366Z,94473.16
2018-01-14T17:35:25.214Z,94470.48
2018-01-14T17:37:53.103Z,94476.30
2018-01-14T17:40:20.959Z,94484.30
2018-01-14T17:42:49.028Z,94485.42
2018-01-14T17:45:16.833Z,94485.31
2018-01-14T17:47:44.955Z,94487.89
2018-01-14T17:50:12.785Z,94488.74
2018-01-14T17:52:41.421Z,94492.28
2018-01-14T17:55:09.294Z,94496.84
2018-01-14T17:57:37.239Z,94499.73
2018-01-14T18:00:05.068Z,94502.16
2018-01-14T18:02:33.249Z,94501.16
2018-01-14T18:05:01.187Z,94494.91
2018-01-14T18:07:29.108Z,94503.54
2018-01-14T18:09:57.009Z,94507.63
2018-01-14T18:12:24.747Z,94507.67
2018-01-14T18:14:52.518Z,94518.36
2018-01-14T18:17:27.285Z,94516.64
2018-01-14T18:19:56.489Z,94523.77
2018-01-14T18:22:25.504Z,94522.30
2018-01-14T18:24:53.447Z,94520.15
2018-01-14T18:27:21.788Z,94524.49
2018-01-14T18:29:49.705Z,94521.94
2018-01-14T18:32:17.580Z,94525.01
2018-01-14T18:34:45.407Z,94523.48
2018-01-14T18:37:13.966Z,94532.58
2018-01-14T18:39:41.998Z,94534.06
2018-01-14T18:42:11.822Z,94537.11
2018-01-14T18:44:39.606Z,94535.39
2018-01-14T18:47:07.496Z,94539.66
2018-01-14T18:49:35.339Z,94544.81
2018-01-14T18:52:03.193Z,94541.81
2018-01-14T18:54:31.159Z,94538.09
2018-01-14T18:57:00.032Z,94543.86
2018-01-14T18:59:28.916Z,94541.42
2018-01-14T19:01:57.015Z,94547.70
2018-01-14T19:04:25.381Z,94544.41
2018-01-14T19:06:53.544Z,94547.08
2018-01-14T19:09:22.437Z,94539.33
2018-01-14T19:11:50.592Z,94540.65
2018-01-14T19:14:18.545Z,94544.55
2018-01-14T19:16:46.593Z,94550.61
2018-01-14T19:19:17.808Z,94545.69
2018-01-14T19:21:46.188Z,94537.29
2018-01-14T19:24:14.070Z,94535.42
2018-01-14T19:26:41.930Z,94545.06
2018-01-14T19:29:09.801Z,94546.45
2018-01-14T19:31:37.597Z,94546.78
2018-01-14T19:34:05.747Z,94551.27
2018-01-14T19:36:33.863Z,94551.71
2018-01-14T19:39:02.005Z,94555.86
2018-01-14T19:41:30.946Z,94547.32
2018-01-14T19:43:58.932Z,94550.22
2018-01-14T19:46:26.727Z,94550.33
2018-01-14T19:48:54.425Z,94561.68
2018-01-14T19:51:22.258Z,94566.46
2018-01-14T19:53:51.096Z,94564.71
2018-01-14T19:56:18.920Z,94563.72
2018-01-14T19:58:46.667Z,94564.23
2018-01-14T20:01:14.516Z,94556.02
2018-01-14T20:03:42.501Z,94563.20
2018-01-14T20:06:10.314Z,94565.36
2018-01-14T20:08:38.046Z,94566.90
2018-01-14T20:11:06.747Z,94565.11
2018-01-14T20:13:34.721Z,94559.11
2018-01-14T20:16:02.522Z,94567.51
2018-01-14T20:18:30.221Z,94560.89
2018-01-14T20:20:58.194Z,94568.70
2018-01-14T20:23:26.158Z,94563.85
2018-01-14T20:25:53.998Z,94558.80
2018-01-14T20:28:21.892Z,94564.96
2018-01-14T20:30:49.621Z,94564.23
2018-01-14T20:33:17.519Z,94556.41
2018-01-14T20:35:45.888Z,94552.75
2018-01-14T20:38:13.680Z,94562.41
2018-01-14T20:40:41.550Z,94568.45
2018-01-14T20:43:09.397Z,94574.44
2018-01-14T20:45:37.270Z,94568.41
2018-01-14T20:48:05.338Z,94568.38
2018-01-14T20:50:33.167Z,94568.13
2018-01-14T20:53:01.055Z,94570.62
2018-01-14T20:55:28.852Z,94574.08
2018-01-14T20:57:56.681Z,94571.09
2018-01-14T21:00:24.457Z,94575.28
2018-01-14T21:02:53.009Z,94574.44
2018-01-14T21:05:21.923Z,94573.34
2018-01-14T21:07:49.921Z,94571.02
2018-01-14T21:10:17.701Z,94577.16
2018-01-14T21:12:45.557Z,94577.27
2018-01-14T21:15:13.509Z,94588.13
2018-01-14T21:17:41.391Z,94580.50
2018-01-14T21:20:10.914Z,94580.03
2018-01-14T21:22:39.904Z,94577.56
2018-01-14T21:25:07.635Z,94576.27
2018-01-14T21:27:35.444Z,94574.80
2018-01-14T21:30:03.321Z,94576.59
2018-01-14T21:32:32.457Z,94577.17
2018-01-14T21:35:00.230Z,94578.34
2018-01-14T21:37:28.579Z,94582.52
2018-01-14T21:39:56.715Z,94581.15
2018-01-14T21:42:25.273Z,94578.20
2018-01-14T21:44:53.063Z,94577.44
2018-01-14T21:47:21.433Z,94589.37
2018-01-14T21:49:50.374Z,94589.99
2018-01-14T21:52:18.176Z,94590.84
2018-01-14T21:54:46.093Z,94587.16
2018-01-14T21:57:13.807Z,94593.28
2018-01-14T21:59:41.552Z,94598.75
2018-01-14T22:02:09.283Z,94588.88
2018-01-14T22:04:37.046Z,94587.89
2018-01-14T22:07:05.044Z,94591.77
2018-01-14T22:09:32.784Z,94589.58
2018-01-14T22:12:00.528Z,94588.17
2018-01-14T22:14:29.471Z,94582.06
2018-01-14T22:16:57.222Z,94581.59
2018-01-14T22:19:25.324Z,94584.11
2018-01-14T22:21:53.012Z,94585.41
2018-01-14T22:24:21.533Z,94583.39
2018-01-14T22:26:49.288Z,94583.42
2018-01-14T22:29:17.026Z,94593.34
2018-01-14T22:31:45.992Z,94589.22
2018-01-14T22:34:14.268Z,94584.91
2018-01-14T22:36:41.953Z,94595.89
2018-01-14T22:39:09.683Z,94596.77
2018-01-14T22:41:37.392Z,94592.13
2018-01-14T22:44:05.135Z,94593.08
2018-01-14T22:46:32.808Z,94587.90
2018-01-14T22:49:00.536Z,94588.66
2018-01-14T22:51:28.249Z,94593.09
2018-01-14T22:53:55.963Z,94585.67
2018-01-14T22:56:23.730Z,94581.64
2018-01-14T22:58:51.585Z,94591.33
2018-01-14T23:01:19.358Z,94580.56
2018-01-14T23:03:47.116Z,94581.84
2018-01-14T23:06:14.799Z,94577.16
2018-01-14T23:08:42.578Z,94578.34
2018-01-14T23:11:10.297Z,94581.52
2018-01-14T23:13:38.088Z,94573.13
2018-01-14T23:16:05.859Z,94577.17
2018-01-14T23:18:34.520Z,94572.05
2018-01-14T23:21:02.763Z,94578.41
2018-01-14T23:23:30.425Z,94576.52
2018-01-14T23:25:58.120Z,94576.88
2018-01-14T23:28:25.840Z,94577.41
2018-01-14T23:30:53.576Z,94578.36
2018-01-14T23:33:21.299Z,94577.58
2018-01-14T23:35:49.003Z,94574.98
2018-01-14T23:38:16.839Z,94563.45
2018-01-14T23:40:44.513Z,94561.80
2018-01-14T23:43:12.214Z,94562.41
2018-01-14T23:45:39.966Z,94562.46
2018-01-14T23:48:07.751Z,94568.55
2018-01-14T23:50:35.430Z,94567.17
2018-01-14T23:53:03.171Z,94577.62
2018-01-14T23:55:31.016Z,94566.51
2018-01-14T23:57:58.712Z,94567.41
